Time;durP1;ratioP1;P1;durP2;ratioP2;P2;SDS_P1;SDS_P2;PMS_P1;PMS_P2;Temp;Humidity;BMP_temperature;BMP_pressure;BME280_temperature;BME280_humidity;BME280_pressure;Samples;Min_cycle;Max_cycle;Signal;HPM_P1;HPM_P2
2024/03/20 00:02:24;;;;;;;6.13;3.35;;;;;;;1.56;52.41;94923.06;5130333;27;20035;-76
2024/03/20 00:04:50;;;;;;;17.63;9.68;;;;;;;1.61;51.78;94921.16;5132930;27;20019;-76
2024/03/20 00:07:16;;;;;;;13.82;7.05;;;;;;;1.67;52.62;94920.88;5130697;27;20462;-76
2024/03/20 00:09:41;;;;;;;6.20;4.18;;;;;;;1.52;53.09;94914.72;5130336;27;20039;-75
2024/03/20 00:12:07;;;;;;;5.75;3.30;;;;;;;1.44;52.75;94908.28;5114257;27;20415;-76
2024/03/20 00:14:33;;;;;;;6.18;3.17;;;;;;;1.55;52.42;94916.31;5131538;27;20185;-76
2024/03/20 00:17:01;;;;;;;5.97;2.90;;;;;;;1.48;52.23;94920.06;5132894;27;20027;-76
2024/03/20 00:19:27;;;;;;;5.18;3.45;;;;;;;1.55;53.02;94919.69;5129940;27;20092;-76
2024/03/20 00:21:52;;;;;;;4.95;3.10;;;;;;;1.32;52.99;94915.63;5114446;27;20031;-76
2024/03/20 00:24:18;;;;;;;5.13;3.10;;;;;;;1.38;55.29;94918.81;5132640;27;20042;-76
2024/03/20 00:26:43;;;;;;;4.35;3.08;;;;;;;1.27;53.32;94917.56;5131433;27;20508;-76
2024/03/20 00:29:09;;;;;;;6.55;3.33;;;;;;;1.21;53.47;94919.56;5129700;27;20039;-76
2024/03/20 00:31:35;;;;;;;4.55;2.90;;;;;;;1.17;53.60;94931.69;5131591;27;20027;-76
2024/03/20 00:34:00;;;;;;;5.28;3.40;;;;;;;1.24;53.69;94917.69;5132393;27;20029;-76
2024/03/20 00:36:26;;;;;;;3.42;2.55;;;;;;;1.23;52.82;94912.66;5132879;27;20031;-76
2024/03/20 00:38:51;;;;;;;5.15;2.80;;;;;;;1.27;53.61;94922.69;5142683;27;20409;-76
2024/03/20 00:41:17;;;;;;;4.55;2.92;;;;;;;1.31;54.00;94921.66;5134260;27;20436;-76
2024/03/20 00:43:42;;;;;;;4.82;3.15;;;;;;;1.23;54.04;94921.16;5117435;27;20496;-76
2024/03/20 00:46:07;;;;;;;8.23;3.22;;;;;;;1.14;53.73;94919.00;5135944;27;20304;-76
2024/03/20 00:48:33;;;;;;;4.70;2.63;;;;;;;0.95;54.00;94895.97;5137908;27;20026;-76
2024/03/20 00:50:58;;;;;;;5.70;3.15;;;;;;;1.10;54.14;94920.88;5137975;27;20082;-76
2024/03/20 00:53:24;;;;;;;6.22;3.17;;;;;;;1.10;53.92;94904.69;5154943;27;20079;-76
2024/03/20 00:55:49;;;;;;;4.13;2.78;;;;;;;0.92;53.74;94892.69;5171298;27;20396;-76
2024/03/20 00:58:15;;;;;;;4.43;3.00;;;;;;;1.18;54.29;94924.81;5173520;27;20035;-76
2024/03/20 01:00:41;;;;;;;5.38;3.10;;;;;;;0.81;54.17;94890.63;5155121;27;20037;-76
2024/03/20 01:03:07;;;;;;;4.40;2.72;;;;;;;1.09;53.67;94921.78;5155086;27;20408;-76
2024/03/20 01:05:33;;;;;;;5.05;2.97;;;;;;;1.19;53.71;94923.91;5170137;27;20377;-76
2024/03/20 01:07:59;;;;;;;4.30;3.17;;;;;;;1.10;54.01;94925.16;5137945;27;20034;-76
2024/03/20 01:10:25;;;;;;;4.18;2.65;;;;;;;0.84;53.80;94896.44;5102966;27;20027;-74
2024/03/20 01:12:51;;;;;;;4.47;2.88;;;;;;;1.12;54.61;94923.38;5097070;27;20034;-75
2024/03/20 01:15:16;;;;;;;4.28;2.80;;;;;;;1.10;54.45;94927.72;5116157;27;20042;-75
2024/03/20 01:17:42;;;;;;;6.40;2.83;;;;;;;0.74;55.44;94902.84;5114717;27;20200;-75
2024/03/20 01:20:07;;;;;;;7.55;3.22;;;;;;;0.77;55.03;94932.56;5153783;27;20034;-76
2024/03/20 01:22:36;;;;;;;5.55;3.08;;;;;;;0.87;53.77;94919.31;5120552;27;20122;-75
2024/03/20 01:25:05;;;;;;;4.70;2.53;;;;;;;0.83;54.30;94922.91;5137143;27;20503;-75
2024/03/20 01:27:31;;;;;;;4.05;2.60;;;;;;;0.83;54.57;94917.78;5119830;27;20114;-75
2024/03/20 01:29:56;;;;;;;4.25;2.80;;;;;;;0.91;54.56;94919.19;5112881;27;20101;-75
2024/03/20 01:32:22;;;;;;;4.55;3.10;;;;;;;1.01;54.62;94935.81;5136731;27;20035;-74
2024/03/20 01:34:47;;;;;;;5.03;3.35;;;;;;;0.91;54.97;94930.25;5135770;27;20058;-75
2024/03/20 01:37:13;;;;;;;5.57;3.10;;;;;;;0.78;54.65;94912.06;5155479;27;20083;-75
2024/03/20 01:39:38;;;;;;;5.20;2.78;;;;;;;0.91;55.18;94912.34;5136907;27;20042;-75
2024/03/20 01:42:04;;;;;;;6.28;2.92;;;;;;;0.86;55.77;94925.34;5111167;27;20492;-75
2024/03/20 01:44:29;;;;;;;4.60;2.80;;;;;;;0.69;57.50;94925.22;5108360;27;20114;-75
2024/03/20 01:46:54;;;;;;;4.85;2.75;;;;;;;0.67;57.73;94909.13;5136855;27;20031;-74
2024/03/20 01:49:20;;;;;;;3.70;2.30;;;;;;;0.58;57.78;94912.06;5155056;27;20027;-74
2024/03/20 01:51:45;;;;;;;4.57;2.83;;;;;;;0.72;57.74;94935.31;5155032;27;20464;-75
2024/03/20 01:54:11;;;;;;;4.60;2.75;;;;;;;0.71;57.04;94933.66;5136708;27;20027;-74
2024/03/20 01:56:36;;;;;;;5.90;2.50;;;;;;;0.43;58.40;94932.25;5136621;27;20471;-74
2024/03/20 01:59:02;;;;;;;4.00;2.70;;;;;;;-0.12;59.89;94910.66;5135763;27;20427;-74
2024/03/20 02:01:27;;;;;;;5.03;2.90;;;;;;;0.10;59.56;94929.34;5154810;27;20487;-74
2024/03/20 02:03:54;;;;;;;4.22;2.80;;;;;;;0.06;57.96;94915.03;5133699;27;20019;-75
2024/03/20 02:06:27;;;;;;;4.93;3.30;;;;;;;0.09;58.61;94909.00;5136426;27;20018;-74
2024/03/20 02:08:54;;;;;;;4.22;2.60;;;;;;;0.31;58.14;94927.66;5116294;27;20050;-75
2024/03/20 02:11:21;;;;;;;4.63;2.85;;;;;;;0.23;58.86;94911.81;5101938;27;20099;-75
2024/03/20 02:13:50;;;;;;;4.93;2.72;;;;;;;0.39;60.15;94925.63;5136348;27;20472;-75
2024/03/20 02:16:16;;;;;;;4.72;3.00;;;;;;;0.35;58.67;94926.63;5115853;27;20019;-75
2024/03/20 02:18:42;;;;;;;5.40;2.85;;;;;;;0.22;59.31;94912.69;5117985;27;20034;-75
2024/03/20 02:21:11;;;;;;;4.45;2.75;;;;;;;0.15;61.51;94909.56;5136029;27;20037;-76
2024/03/20 02:23:37;;;;;;;4.55;2.58;;;;;;;0.14;59.67;94925.78;5154471;27;20027;-75
2024/03/20 02:26:06;;;;;;;5.60;3.28;;;;;;;0.18;59.31;94934.16;5117949;27;20066;-75
2024/03/20 02:28:33;;;;;;;4.93;2.88;;;;;;;0.13;58.84;94941.16;5101728;27;20510;-75
2024/03/20 02:31:02;;;;;;;7.13;2.38;;;;;;;0.32;59.69;94938.72;5117891;27;20031;-76
2024/03/20 02:33:27;;;;;;;4.22;2.50;;;;;;;0.08;60.60;94932.84;5136164;27;20026;-74
2024/03/20 02:35:53;;;;;;;4.28;2.88;;;;;;;0.01;60.70;94932.28;5109730;27;20400;-74
2024/03/20 02:38:20;;;;;;;5.00;2.97;;;;;;;-0.03;60.99;94934.13;5154134;27;20412;-76
2024/03/20 02:40:45;;;;;;;5.65;2.90;;;;;;;0.02;60.94;94930.56;5135397;27;20023;-74
2024/03/20 02:43:11;;;;;;;4.15;2.80;;;;;;;0.02;60.90;94918.59;5154316;27;20027;-74
2024/03/20 02:45:36;;;;;;;4.38;2.83;;;;;;;-0.05;61.81;94917.19;5134607;27;20524;-74
2024/03/20 02:48:02;;;;;;;4.93;2.72;;;;;;;-0.03;62.05;94930.72;5118446;27;20265;-74
2024/03/20 02:50:27;;;;;;;5.70;3.28;;;;;;;0.16;62.60;94941.03;5107191;27;20055;-74
2024/03/20 02:52:53;;;;;;;5.03;3.10;;;;;;;0.13;60.50;94936.06;5132388;27;20049;-76
2024/03/20 02:55:18;;;;;;;4.50;2.83;;;;;;;0.16;61.22;94930.81;5155543;27;20071;-75
2024/03/20 02:57:44;;;;;;;6.60;2.95;;;;;;;0.09;59.72;94945.59;5152710;27;20480;-76
2024/03/20 03:00:10;;;;;;;6.45;3.08;;;;;;;-0.05;60.17;94943.56;5135148;27;20033;-75
2024/03/20 03:02:35;;;;;;;4.75;2.80;;;;;;;-0.07;61.29;94924.91;5135751;27;20986;-75
2024/03/20 03:05:01;;;;;;;4.85;3.10;;;;;;;-0.15;62.31;94901.41;5153643;27;20045;-75
2024/03/20 03:07:26;;;;;;;4.57;2.80;;;;;;;0.19;61.57;94943.47;5153717;27;20022;-76
2024/03/20 03:09:52;;;;;;;5.40;3.00;;;;;;;-0.10;62.56;94949.75;5153546;27;20022;-76
2024/03/20 03:12:17;;;;;;;4.95;2.92;;;;;;;-0.16;64.84;94950.81;5135138;27;20078;-75
2024/03/20 03:14:43;;;;;;;5.35;3.10;;;;;;;-0.25;63.51;94943.53;5153002;27;20054;-75
2024/03/20 03:17:08;;;;;;;4.75;3.10;;;;;;;-0.21;64.16;94941.69;5134804;27;20515;-75
2024/03/20 03:19:33;;;;;;;5.47;3.10;;;;;;;-0.38;64.92;94949.97;5109810;27;20035;-76
2024/03/20 03:21:59;;;;;;;4.53;3.00;;;;;;;-0.40;64.38;94951.75;5116555;27;20026;-75
2024/03/20 03:24:24;;;;;;;5.20;3.00;;;;;;;-0.38;65.12;94958.47;5153418;27;20038;-75
2024/03/20 03:26:50;;;;;;;5.57;3.50;;;;;;;-0.36;63.64;94958.38;5134994;27;20030;-75
2024/03/20 03:29:15;;;;;;;6.63;3.35;;;;;;;-0.33;64.79;94961.69;5149816;27;20022;-75
2024/03/20 03:31:40;;;;;;;5.50;3.05;;;;;;;-0.52;64.12;94953.88;5133033;27;20030;-75
2024/03/20 03:34:06;;;;;;;6.03;3.22;;;;;;;-0.38;64.28;94958.47;5151730;27;20034;-75
2024/03/20 03:36:34;;;;;;;4.93;3.25;;;;;;;-0.73;64.44;94959.75;5117783;27;20029;-76
2024/03/20 03:38:59;;;;;;;5.13;3.35;;;;;;;-0.49;66.27;94968.25;5109565;27;20067;-75
2024/03/20 03:41:25;;;;;;;5.32;3.15;;;;;;;-0.43;65.41;94967.19;5153405;27;20025;-75
2024/03/20 03:43:50;;;;;;;5.55;3.45;;;;;;;-0.58;65.41;94974.53;5116245;27;20073;-75
2024/03/20 03:46:16;;;;;;;5.63;3.53;;;;;;;-0.53;65.00;94980.31;5153180;27;20031;-75
2024/03/20 03:48:42;;;;;;;4.80;3.15;;;;;;;-0.37;65.32;94969.50;5154024;27;20050;-75
2024/03/20 03:51:08;;;;;;;4.65;3.13;;;;;;;-0.23;65.11;94985.13;5132247;27;20022;-75
2024/03/20 03:53:34;;;;;;;5.15;3.22;;;;;;;-0.39;65.63;94973.81;5148342;27;20054;-75
2024/03/20 03:55:59;;;;;;;6.00;3.35;;;;;;;-0.31;65.02;94992.25;5128341;27;20023;-75
2024/03/20 03:58:25;;;;;;;6.13;3.55;;;;;;;-0.31;64.96;94976.94;5105465;27;20757;-75
2024/03/20 04:00:50;;;;;;;4.70;2.92;;;;;;;-0.21;65.19;94995.31;5108487;27;20105;-75
2024/03/20 04:03:15;;;;;;;8.23;3.60;;;;;;;-0.38;65.97;94986.53;5130262;27;20031;-75
2024/03/20 04:05:41;;;;;;;4.47;3.17;;;;;;;-0.27;64.94;94996.38;5111926;27;20037;-75
2024/03/20 04:08:06;;;;;;;4.85;3.33;;;;;;;-0.55;65.95;94997.38;5129386;27;20030;-75
2024/03/20 04:10:32;;;;;;;5.22;3.63;;;;;;;-0.46;66.53;94993.66;5130278;27;20023;-75
2024/03/20 04:12:57;;;;;;;5.80;3.30;;;;;;;-0.65;65.27;94988.38;5128877;27;20459;-75
2024/03/20 04:15:23;;;;;;;7.05;4.18;;;;;;;-0.56;65.17;94999.97;5111529;27;20228;-75
2024/03/20 04:17:48;;;;;;;5.50;3.30;;;;;;;-0.62;65.52;94985.72;5127619;27;20027;-75
2024/03/20 04:20:14;;;;;;;8.18;3.33;;;;;;;-0.42;65.13;94997.75;5144218;27;20034;-76
2024/03/20 04:22:41;;;;;;;5.13;3.20;;;;;;;-0.45;65.88;95000.41;5129256;27;20084;-75
2024/03/20 04:25:07;;;;;;;6.10;3.50;;;;;;;-0.61;65.58;94984.00;5128651;27;20372;-76
2024/03/20 04:27:32;;;;;;;9.25;3.67;;;;;;;-0.53;64.77;94998.16;5131273;27;20059;-76
2024/03/20 04:29:58;;;;;;;5.70;3.30;;;;;;;-0.26;64.74;94996.28;5091797;27;20031;-76
2024/03/20 04:32:25;;;;;;;6.72;3.72;;;;;;;-0.13;65.24;95006.06;5104697;27;20501;-77
2024/03/20 04:34:50;;;;;;;6.78;4.00;;;;;;;-0.10;65.04;94999.09;5110993;27;20062;-78
2024/03/20 04:37:16;;;;;;;7.30;3.92;;;;;;;-0.27;64.13;94968.28;5133316;27;20026;-78
2024/03/20 04:39:41;;;;;;;5.88;3.45;;;;;;;-0.10;64.02;95005.94;5146859;27;20470;-78
2024/03/20 04:42:08;;;;;;;4.55;3.15;;;;;;;-0.02;62.89;95017.53;5113895;27;20513;-77
2024/03/20 04:44:33;;;;;;;5.88;3.78;;;;;;;-0.01;62.40;95014.06;5133171;27;20514;-77
2024/03/20 04:46:59;;;;;;;9.10;3.70;;;;;;;-0.14;62.09;95014.59;5113165;27;20023;-77
2024/03/20 04:49:24;;;;;;;5.95;3.70;;;;;;;-0.16;62.30;95012.09;5150765;27;20420;-77
2024/03/20 04:51:50;;;;;;;6.20;4.30;;;;;;;-0.16;62.93;95024.06;5110052;27;20488;-78
2024/03/20 04:54:15;;;;;;;4.53;3.17;;;;;;;-0.30;62.01;94991.38;5151067;27;20026;-78
2024/03/20 04:56:40;;;;;;;5.40;3.20;;;;;;;0.06;61.92;95034.28;5131607;27;20023;-78
2024/03/20 04:59:07;;;;;;;6.10;3.60;;;;;;;0.16;63.71;95025.34;5150597;27;20038;-77
2024/03/20 05:01:32;;;;;;;6.90;3.33;;;;;;;0.03;63.03;95036.94;5109121;27;20114;-77
2024/03/20 05:03:59;;;;;;;5.68;3.67;;;;;;;0.07;63.57;95028.28;5107460;27;20026;-77
2024/03/20 05:06:24;;;;;;;7.35;3.55;;;;;;;0.02;61.64;95031.00;5114507;27;20053;-77
2024/03/20 05:08:50;;;;;;;5.05;3.35;;;;;;;0.21;62.82;95041.34;5148074;27;20508;-78
2024/03/20 05:11:15;;;;;;;5.70;3.88;;;;;;;0.25;62.12;95042.88;5112854;27;20037;-78
2024/03/20 05:13:40;;;;;;;5.72;3.55;;;;;;;0.13;63.77;95033.16;5112784;27;20030;-78
2024/03/20 05:16:09;;;;;;;6.53;3.50;;;;;;;0.29;64.98;95034.22;5113930;27;20041;-77
2024/03/20 05:18:34;;;;;;;6.25;3.70;;;;;;;0.27;64.05;95051.31;5114585;27;20087;-78
2024/03/20 05:21:00;;;;;;;6.22;3.30;;;;;;;0.42;64.83;95058.41;5127522;27;20034;-79
2024/03/20 05:23:25;;;;;;;6.18;3.38;;;;;;;0.42;64.02;95060.97;5132070;27;20034;-78
2024/03/20 05:25:55;;;;;;;6.25;3.47;;;;;;;0.58;63.11;95062.91;5105777;27;20030;-79
2024/03/20 05:28:20;;;;;;;5.68;3.90;;;;;;;0.48;62.60;95059.06;5132595;27;20045;-79
2024/03/20 05:30:46;;;;;;;6.80;3.53;;;;;;;0.09;64.72;95046.94;5086063;27;20023;-79
2024/03/20 05:33:11;;;;;;;5.68;3.88;;;;;;;0.33;64.18;95068.97;5131103;27;20019;-79
2024/03/20 05:35:36;;;;;;;6.57;3.70;;;;;;;0.29;63.09;95049.56;5132200;27;20031;-80
2024/03/20 05:38:02;;;;;;;7.60;4.13;;;;;;;0.74;63.63;95066.50;5128504;27;20736;-80
2024/03/20 05:40:28;;;;;;;6.72;4.13;;;;;;;1.10;61.38;95069.28;5128260;27;20023;-79
2024/03/20 05:42:53;;;;;;;5.72;3.63;;;;;;;1.44;61.84;95055.06;5126166;27;20022;-76
2024/03/20 05:45:18;;;;;;;8.77;3.70;;;;;;;1.79;59.04;95065.50;5121959;27;20042;-77
2024/03/20 05:47:44;;;;;;;6.32;3.95;;;;;;;2.15;59.17;95051.91;5146106;27;20491;-76
2024/03/20 05:50:11;;;;;;;6.53;3.92;;;;;;;2.66;55.19;95081.97;5139599;27;20031;-76
2024/03/20 05:52:36;;;;;;;7.38;4.20;;;;;;;2.87;53.78;95069.00;5149372;27;20050;-76
2024/03/20 05:55:02;;;;;;;6.40;4.22;;;;;;;3.34;51.94;95078.66;5117233;27;20502;-77
2024/03/20 05:57:27;;;;;;;5.28;3.92;;;;;;;3.52;50.74;95090.59;5132609;27;20068;-76
2024/03/20 05:59:53;;;;;;;6.20;4.00;;;;;;;3.51;50.49;95086.38;5144708;27;20043;-76
2024/03/20 06:02:18;;;;;;;6.80;4.45;;;;;;;3.28;51.65;95077.22;5110634;28;20522;-77
2024/03/20 06:04:44;;;;;;;7.35;4.57;;;;;;;3.52;50.27;95087.19;5131230;27;20047;-76
2024/03/20 06:07:09;;;;;;;6.28;4.05;;;;;;;3.84;51.63;95077.81;5153070;27;20582;-77
2024/03/20 06:09:36;;;;;;;21.55;9.93;;;;;;;4.29;49.96;95089.19;5115792;27;20449;-76
2024/03/20 06:12:04;;;;;;;6.97;3.90;;;;;;;4.92;46.83;95078.81;5119175;27;20035;-76
2024/03/20 06:14:30;;;;;;;7.25;4.13;;;;;;;5.95;44.27;95075.41;5105563;27;20030;-76
2024/03/20 06:16:56;;;;;;;9.32;5.40;;;;;;;6.93;42.69;95081.38;5133416;27;20038;-76
2024/03/20 06:19:22;;;;;;;9.30;4.90;;;;;;;7.49;41.31;95071.66;5137165;27;20124;-76
2024/03/20 06:21:47;;;;;;;7.68;4.93;;;;;;;7.18;41.67;95082.38;5123344;27;20043;-76
2024/03/20 06:24:12;;;;;;;7.43;5.03;;;;;;;7.90;39.93;95075.81;5107796;27;20076;-76
2024/03/20 06:26:38;;;;;;;11.23;6.93;;;;;;;7.46;41.83;95097.72;5114689;27;20023;-77
2024/03/20 06:29:03;;;;;;;28.08;12.82;;;;;;;9.18;39.37;95094.44;5117057;27;20496;-77
2024/03/20 06:31:29;;;;;;;18.63;9.60;;;;;;;9.81;37.87;95079.41;5115630;27;20042;-78
2024/03/20 06:33:54;;;;;;;13.02;7.88;;;;;;;7.81;39.66;95108.31;5114854;27;20023;-77
2024/03/20 06:36:19;;;;;;;8.45;5.72;;;;;;;6.92;42.63;95118.47;5116348;27;20107;-77
2024/03/20 06:38:45;;;;;;;9.73;6.68;;;;;;;6.67;42.64;95116.59;5116207;27;20046;-77
2024/03/20 06:41:13;;;;;;;8.82;6.10;;;;;;;5.59;45.25;95117.06;5124136;27;20042;-77
2024/03/20 06:43:38;;;;;;;9.40;5.80;;;;;;;5.74;46.03;95115.31;5148523;27;20405;-77
2024/03/20 06:46:06;;;;;;;8.98;6.40;;;;;;;5.51;46.17;95101.22;5136643;27;20034;-77
2024/03/20 06:48:32;;;;;;;18.92;7.50;;;;;;;5.93;45.72;95130.53;5103232;27;20083;-77
2024/03/20 06:50:59;;;;;;;15.30;8.05;;;;;;;5.94;44.71;95124.53;5135934;27;20023;-77
2024/03/20 06:53:28;;;;;;;11.88;6.47;;;;;;;5.84;45.72;95131.91;5118625;27;20040;-77
2024/03/20 06:55:55;;;;;;;17.42;9.60;;;;;;;5.76;46.60;95136.69;5135360;27;20031;-77
2024/03/20 06:58:23;;;;;;;12.55;6.32;;;;;;;5.90;45.16;95112.69;5112389;27;20472;-77
2024/03/20 07:00:48;;;;;;;10.43;6.60;;;;;;;5.70;45.94;95130.16;5133540;27;20122;-77
2024/03/20 07:03:14;;;;;;;9.90;6.05;;;;;;;4.92;47.60;95109.69;5136176;27;20034;-76
2024/03/20 07:05:40;;;;;;;9.70;6.18;;;;;;;5.84;46.67;95139.66;5114697;27;20031;-76
2024/03/20 07:08:07;;;;;;;10.75;7.45;;;;;;;5.34;47.26;95130.53;5127634;27;20073;-77
2024/03/20 07:10:33;;;;;;;11.45;6.53;;;;;;;5.61;46.43;95102.34;5099537;27;20110;-77
2024/03/20 07:12:58;;;;;;;9.50;5.65;;;;;;;5.76;46.54;95098.03;5121257;27;20401;-76
2024/03/20 07:15:24;;;;;;;10.20;5.50;;;;;;;5.94;46.16;95135.66;5153824;27;20471;-76
2024/03/20 07:17:49;;;;;;;8.75;5.70;;;;;;;5.68;46.97;95144.88;5121246;27;20054;-76
2024/03/20 07:20:15;;;;;;;9.45;6.50;;;;;;;4.99;47.84;95140.28;5115373;27;20417;-77
2024/03/20 07:22:40;;;;;;;12.02;6.18;;;;;;;5.00;48.37;95119.56;5146106;27;20075;-77
2024/03/20 07:25:07;;;;;;;8.10;5.43;;;;;;;5.44;48.13;95123.94;5110426;27;20424;-76
2024/03/20 07:27:33;;;;;;;14.15;6.03;;;;;;;5.30;48.12;95124.75;5113187;27;20573;-77
2024/03/20 07:29:59;;;;;;;10.48;6.10;;;;;;;5.89;47.80;95122.16;5124669;27;20015;-76
2024/03/20 07:32:25;;;;;;;10.50;6.53;;;;;;;6.25;47.57;95144.97;5122815;27;20035;-76
2024/03/20 07:34:50;;;;;;;9.18;5.95;;;;;;;6.16;46.57;95140.38;5152498;27;20090;-76
2024/03/20 07:37:16;;;;;;;10.07;6.30;;;;;;;6.11;46.28;95142.38;5152092;27;20407;-76
2024/03/20 07:39:41;;;;;;;8.18;5.60;;;;;;;6.14;46.30;95136.22;5127415;27;20312;-76
2024/03/20 07:42:08;;;;;;;10.70;6.63;;;;;;;5.74;46.84;95138.53;5135062;27;20035;-76
2024/03/20 07:44:33;;;;;;;8.00;5.68;;;;;;;5.45;47.57;95138.47;5103787;27;20027;-76
2024/03/20 07:46:59;;;;;;;8.75;5.38;;;;;;;5.65;47.15;95133.91;5114640;27;20083;-76
2024/03/20 07:49:24;;;;;;;12.98;6.38;;;;;;;5.59;48.02;95145.41;5115365;27;20040;-76
2024/03/20 07:51:50;;;;;;;11.23;6.05;;;;;;;5.36;48.20;95139.84;5121106;27;20524;-76
2024/03/20 07:54:23;;;;;;;11.35;5.70;;;;;;;6.04;47.74;95117.88;5131327;27;20050;-76
2024/03/20 07:56:49;;;;;;;10.40;6.70;;;;;;;5.85;48.01;95120.72;5118918;27;20092;-77
2024/03/20 07:59:14;;;;;;;8.93;5.70;;;;;;;5.59;48.35;95135.09;5115037;27;20064;-77
2024/03/20 08:01:40;;;;;;;9.13;6.10;;;;;;;5.77;48.66;95144.34;5100914;27;20030;-77
2024/03/20 08:04:06;;;;;;;8.88;5.57;;;;;;;6.45;47.32;95136.00;5118885;27;20029;-77
2024/03/20 08:06:31;;;;;;;12.55;6.32;;;;;;;6.50;46.77;95133.16;5097185;27;20023;-77
2024/03/20 08:08:56;;;;;;;10.02;6.47;;;;;;;6.10;47.96;95139.88;5116816;27;20015;-77
2024/03/20 08:11:22;;;;;;;10.02;6.03;;;;;;;6.28;47.88;95146.53;5153902;27;20424;-77
2024/03/20 08:13:47;;;;;;;11.93;7.13;;;;;;;6.35;47.68;95119.44;5146441;27;20775;-77
2024/03/20 08:16:13;;;;;;;9.50;6.45;;;;;;;6.50;47.14;95146.06;5080083;27;20037;-77
2024/03/20 08:18:38;;;;;;;9.00;5.97;;;;;;;6.34;46.70;95135.00;5143031;27;20030;-77
2024/03/20 08:21:04;;;;;;;11.05;6.32;;;;;;;6.92;46.85;95144.31;5082927;27;20031;-77
2024/03/20 08:23:30;;;;;;;12.60;6.15;;;;;;;5.98;47.31;95138.88;5143736;27;20076;-77
2024/03/20 08:25:57;;;;;;;10.55;6.28;;;;;;;6.53;47.43;95138.13;5118872;27;20084;-77
2024/03/20 08:28:22;;;;;;;11.55;6.30;;;;;;;6.93;47.21;95135.63;5135519;27;20029;-77
2024/03/20 08:30:50;;;;;;;9.35;5.90;;;;;;;7.20;46.39;95134.78;5095569;27;20429;-77
2024/03/20 08:33:16;;;;;;;8.50;5.82;;;;;;;7.49;45.38;95110.44;5089760;27;20026;-77
2024/03/20 08:35:41;;;;;;;9.05;5.63;;;;;;;7.34;45.50;95119.22;5152737;27;20027;-79
2024/03/20 08:38:07;;;;;;;9.50;5.82;;;;;;;6.89;45.66;95121.25;5121717;27;20424;-76
2024/03/20 08:40:32;;;;;;;13.13;6.65;;;;;;;6.76;45.86;95126.34;5134402;27;20035;-76
2024/03/20 08:42:58;;;;;;;10.55;5.90;;;;;;;6.64;46.51;95115.03;5132485;27;20023;-76
2024/03/20 08:45:23;;;;;;;8.95;5.80;;;;;;;6.48;46.75;95119.50;5152829;27;20035;-76
2024/03/20 08:47:50;;;;;;;8.85;5.38;;;;;;;7.03;46.05;95131.53;5111925;27;20071;-76
2024/03/20 08:50:15;;;;;;;11.55;5.63;;;;;;;6.69;46.00;95138.81;5122407;27;20386;-76
2024/03/20 08:52:43;;;;;;;8.25;5.63;;;;;;;6.65;45.91;95127.00;5131414;27;20011;-76
2024/03/20 08:55:10;;;;;;;10.80;5.90;;;;;;;6.62;47.02;95103.97;5131192;27;20042;-76
2024/03/20 08:57:35;;;;;;;10.57;6.15;;;;;;;7.21;47.20;95119.19;5098755;27;20496;-76
2024/03/20 09:00:05;;;;;;;9.07;6.45;;;;;;;7.07;47.01;95117.47;5151118;27;20027;-76
2024/03/20 09:02:30;;;;;;;8.75;5.53;;;;;;;7.63;45.46;95106.94;5118073;27;20032;-76
2024/03/20 09:04:56;;;;;;;8.02;5.50;;;;;;;7.93;45.10;95118.75;5144603;27;20496;-77
2024/03/20 09:07:21;;;;;;;9.82;6.30;;;;;;;7.37;45.77;95119.84;5149086;27;20120;-76
2024/03/20 09:09:46;;;;;;;10.20;5.80;;;;;;;7.61;45.75;95104.47;5152233;27;20019;-76
2024/03/20 09:12:12;;;;;;;9.95;6.20;;;;;;;7.49;45.47;95123.38;5151423;27;20523;-77
2024/03/20 09:14:38;;;;;;;9.18;5.85;;;;;;;7.97;44.76;95118.47;5096034;28;20035;-76
2024/03/20 09:17:04;;;;;;;10.15;6.22;;;;;;;8.13;44.50;95117.41;5129794;27;20039;-76
2024/03/20 09:19:29;;;;;;;9.90;6.38;;;;;;;7.82;43.98;95107.38;5122143;27;20076;-77
2024/03/20 09:21:55;;;;;;;7.32;5.28;;;;;;;8.27;43.42;95112.09;5140264;27;20476;-76
2024/03/20 09:24:22;;;;;;;9.35;5.15;;;;;;;8.52;43.32;95113.84;5149729;27;20027;-76
2024/03/20 09:26:51;;;;;;;7.50;5.03;;;;;;;8.55;42.20;95107.63;5134007;27;20043;-76
2024/03/20 09:29:17;;;;;;;10.07;6.25;;;;;;;8.10;43.57;95104.69;5131969;27;20023;-76
2024/03/20 09:31:42;;;;;;;9.30;5.97;;;;;;;7.66;44.36;95111.09;5080034;28;20042;-76
2024/03/20 09:34:07;;;;;;;11.15;6.53;;;;;;;7.51;45.36;95080.16;5111352;27;20027;-76
2024/03/20 09:36:33;;;;;;;8.05;5.07;;;;;;;7.88;43.47;95100.97;5117105;27;20042;-76
2024/03/20 09:38:58;;;;;;;10.18;4.70;;;;;;;8.16;43.53;95101.66;5106494;28;20052;-76
2024/03/20 09:41:24;;;;;;;9.48;5.07;;;;;;;8.33;42.97;95091.00;5127283;27;20112;-77
2024/03/20 09:43:54;;;;;;;9.13;6.10;;;;;;;8.53;42.56;95086.22;5133674;27;20035;-76
2024/03/20 09:46:20;;;;;;;18.38;13.27;;;;;;;8.70;42.59;95093.63;5134665;27;20041;-77
2024/03/20 09:48:48;;;;;;;9.57;5.68;;;;;;;8.95;41.78;95085.75;5134782;27;20023;-77
2024/03/20 09:51:18;;;;;;;15.02;7.28;;;;;;;8.90;41.77;95081.84;5136173;27;20032;-77
2024/03/20 09:53:47;;;;;;;10.88;7.22;;;;;;;8.90;41.48;95080.06;5135898;27;20023;-78
2024/03/20 09:56:13;;;;;;;8.93;5.18;;;;;;;7.88;42.83;95089.78;5116599;27;20031;-77
2024/03/20 09:58:39;;;;;;;11.20;5.90;;;;;;;7.99;42.48;95080.34;5117243;27;20314;-76
2024/03/20 10:01:15;;;;;;;8.82;5.40;;;;;;;7.95;43.56;95081.50;5117418;27;20046;-77
2024/03/20 10:03:41;;;;;;;9.75;6.22;;;;;;;8.11;44.12;95070.09;5133001;27;20466;-77
2024/03/20 10:06:08;;;;;;;19.13;9.93;;;;;;;8.01;41.79;95073.31;5115539;27;20035;-77
2024/03/20 10:08:34;;;;;;;21.08;9.60;;;;;;;7.82;40.93;95078.91;5098065;27;20031;-77
2024/03/20 10:11:00;;;;;;;13.20;9.77;;;;;;;7.90;42.45;95039.59;5133971;27;20035;-77
2024/03/20 10:13:25;;;;;;;21.00;16.15;;;;;;;8.60;41.91;95072.72;5132113;27;20031;-77
2024/03/20 10:16:07;;;;;;;5.32;3.95;;;;;;;8.73;40.19;95070.09;5133508;27;20039;-77
2024/03/20 10:18:34;;;;;;;11.52;6.72;;;;;;;8.35;41.67;95070.16;5116213;27;20020;-77
2024/03/20 10:21:00;;;;;;;24.23;19.58;;;;;;;8.27;41.16;95052.56;5119310;27;20039;-77
2024/03/20 10:23:25;;;;;;;18.00;9.05;;;;;;;8.24;41.31;95058.78;5113501;28;20493;-77
2024/03/20 10:25:51;;;;;;;8.45;5.05;;;;;;;8.02;41.17;95059.47;5113560;28;20084;-77
2024/03/20 10:28:17;;;;;;;12.70;7.65;;;;;;;8.56;42.67;95063.53;5113563;28;20030;-76
2024/03/20 10:30:43;;;;;;;7.00;5.00;;;;;;;8.72;41.38;95047.72;5087329;27;20027;-77
2024/03/20 10:33:08;;;;;;;7.72;5.63;;;;;;;8.67;42.25;95055.00;5108836;27;20039;-75
2024/03/20 10:35:34;;;;;;;7.97;5.40;;;;;;;8.66;42.50;95038.63;5105228;27;20401;-77
2024/03/20 10:38:00;;;;;;;8.52;4.55;;;;;;;9.21;40.93;95059.69;5123449;27;20040;-76
2024/03/20 10:40:27;;;;;;;8.27;4.18;;;;;;;9.31;40.25;95034.75;5105983;27;20507;-76
2024/03/20 10:42:52;;;;;;;7.93;5.20;;;;;;;9.61;40.75;95046.34;5117274;27;20023;-77
2024/03/20 10:45:18;;;;;;;8.50;5.25;;;;;;;9.54;40.42;95045.16;5131485;27;20039;-77
2024/03/20 10:47:47;;;;;;;8.80;5.07;;;;;;;9.43;40.53;95038.19;5085938;27;20043;-77
2024/03/20 10:50:14;;;;;;;7.30;4.70;;;;;;;8.90;39.44;95036.03;5130734;27;20031;-77
2024/03/20 10:52:43;;;;;;;6.82;4.68;;;;;;;9.07;40.08;95033.97;5115221;27;20398;-77
2024/03/20 10:55:15;;;;;;;5.88;4.10;;;;;;;9.38;39.73;95035.94;5106374;27;20039;-78
2024/03/20 10:57:41;;;;;;;9.48;5.70;;;;;;;9.03;40.54;95033.38;5127998;27;20486;-77
2024/03/20 11:00:14;;;;;;;10.13;5.13;;;;;;;9.02;40.54;95036.06;5108316;27;20047;-77
2024/03/20 11:02:39;;;;;;;7.28;4.45;;;;;;;9.26;41.10;95030.84;5130408;27;20035;-77
2024/03/20 11:05:33;;;;;;;7.30;5.07;;;;;;;9.12;40.18;95029.28;5128808;27;20035;-78
2024/03/20 11:07:59;;;;;;;8.80;5.53;;;;;;;9.17;42.18;95019.41;5129729;27;20019;-76
2024/03/20 11:10:31;;;;;;;8.75;5.60;;;;;;;9.05;39.16;95026.28;5115502;27;20047;-76
2024/03/20 11:12:57;;;;;;;9.07;4.70;;;;;;;8.84;39.99;95026.09;5131040;27;20034;-76
2024/03/20 11:15:25;;;;;;;5.50;3.88;;;;;;;9.31;39.22;95008.00;5133118;27;20031;-76
2024/03/20 11:17:52;;;;;;;12.00;6.80;;;;;;;9.36;39.43;95019.69;5114031;27;20026;-76
2024/03/20 11:20:33;;;;;;;7.15;4.25;;;;;;;9.48;39.31;95019.72;5123357;27;20046;-76
2024/03/20 11:23:10;;;;;;;8.07;4.05;;;;;;;9.36;38.42;94977.34;5131083;27;20105;-76
2024/03/20 11:25:36;;;;;;;7.28;4.28;;;;;;;9.54;39.41;95020.06;5112164;28;20043;-76
2024/03/20 11:28:02;;;;;;;5.88;4.10;;;;;;;9.84;37.69;95019.50;5112834;27;20027;-76
2024/03/20 11:30:27;;;;;;;6.78;3.97;;;;;;;9.93;38.62;95005.00;5127690;27;20035;-76
2024/03/20 11:32:53;;;;;;;5.07;3.40;;;;;;;10.10;38.31;95006.28;5125622;27;20061;-76
2024/03/20 11:35:19;;;;;;;5.75;3.67;;;;;;;9.99;38.29;94988.13;5102618;27;20042;-76